Time;durP1;ratioP1;P1;durP2;ratioP2;P2;SDS_P1;SDS_P2;PMS_P1;PMS_P2;Temp;Humidity;BMP_temperature;BMP_pressure;BME280_temperature;BME280_humidity;BME280_pressure;Samples;Min_cycle;Max_cycle;Signal;HPM_P1;HPM_P2
2021/08/30 00:00:13;;;;;;;11.53;6.53;;;;;;;11.15;100.00;93803.44;5055686;28;20209;-78
2021/08/30 00:02:39;;;;;;;14.80;5.63;;;;;;;11.13;100.00;93802.84;5055673;28;20195;-78
2021/08/30 00:05:07;;;;;;;11.50;5.73;;;;;;;11.16;100.00;93799.00;5055365;28;20654;-78
2021/08/30 00:07:34;;;;;;;10.57;5.73;;;;;;;11.17;100.00;93804.03;5055296;28;20210;-79
2021/08/30 00:10:00;;;;;;;9.27;5.50;;;;;;;11.16;100.00;93797.22;5055171;28;20200;-79
2021/08/30 00:12:27;;;;;;;9.90;5.97;;;;;;;11.19;100.00;93796.81;5055014;28;20842;-79
2021/08/30 00:14:55;;;;;;;10.90;6.03;;;;;;;11.16;100.00;93802.44;5055066;28;20234;-79
2021/08/30 00:17:22;;;;;;;12.30;6.30;;;;;;;11.19;100.00;93796.81;5055217;28;20207;-80
2021/08/30 00:19:49;;;;;;;9.53;5.73;;;;;;;11.15;100.00;93800.03;5055033;28;20646;-80
2021/08/30 00:22:15;;;;;;;11.83;5.97;;;;;;;11.15;100.00;93786.97;5054903;28;20540;-79
2021/08/30 00:24:42;;;;;;;11.87;5.93;;;;;;;11.14;100.00;93787.97;5055204;28;20226;-80
2021/08/30 00:27:09;;;;;;;13.07;8.10;;;;;;;11.15;100.00;93784.34;5054426;28;20453;-80
2021/08/30 00:29:35;;;;;;;12.23;6.50;;;;;;;11.12;100.00;93782.94;5056052;28;20203;-80
2021/08/30 00:32:03;;;;;;;11.60;5.50;;;;;;;11.08;100.00;93781.75;5055611;28;20210;-80
2021/08/30 00:34:30;;;;;;;12.17;6.33;;;;;;;11.08;100.00;93785.16;5054597;28;20230;-80
2021/08/30 00:36:57;;;;;;;8.50;4.97;;;;;;;11.07;100.00;93783.56;5054811;28;20199;-80
2021/08/30 00:39:24;;;;;;;10.23;5.17;;;;;;;11.09;100.00;93778.09;5054983;28;20210;-80
2021/08/30 00:41:51;;;;;;;9.60;5.10;;;;;;;11.09;100.00;93781.53;5054820;28;20199;-80
2021/08/30 00:44:17;;;;;;;10.90;4.83;;;;;;;11.14;100.00;93780.94;5054700;28;20203;-79
2021/08/30 00:46:44;;;;;;;9.37;4.53;;;;;;;11.22;100.00;93783.31;5054352;28;20587;-80
2021/08/30 00:49:10;;;;;;;8.13;4.10;;;;;;;11.14;100.00;93785.34;5054557;28;20196;-79
2021/08/30 00:51:38;;;;;;;7.37;3.73;;;;;;;11.11;100.00;93779.53;5054416;28;20214;-78
2021/08/30 00:54:05;;;;;;;6.23;3.80;;;;;;;11.09;100.00;93781.53;5052462;28;20231;-79
2021/08/30 00:56:31;;;;;;;8.80;4.00;;;;;;;11.10;100.00;93782.34;5054352;28;20742;-79
2021/08/30 00:58:58;;;;;;;6.03;3.60;;;;;;;11.09;100.00;93781.53;5054307;28;20206;-80
2021/08/30 01:01:24;;;;;;;7.20;3.93;;;;;;;11.15;100.00;93784.34;5054269;28;20199;-80
2021/08/30 01:03:51;;;;;;;10.00;4.17;;;;;;;11.15;100.00;93786.97;5054236;28;20222;-80
2021/08/30 01:06:26;;;;;;;9.47;4.20;;;;;;;11.16;100.00;93785.94;5054104;28;20199;-78
2021/08/30 01:09:03;;;;;;;7.37;4.57;;;;;;;11.11;100.00;93779.53;5054295;28;20199;-80
2021/08/30 01:11:33;;;;;;;9.07;4.20;;;;;;;11.14;100.00;93782.72;5054123;28;20659;-81
2021/08/30 01:14:03;;;;;;;10.25;5.22;;;;;;;11.16;100.00;93783.31;5053330;28;20448;-80
2021/08/30 01:16:32;;;;;;;8.53;4.30;;;;;;;11.16;100.00;93775.47;5053916;28;20196;-81
2021/08/30 01:18:59;;;;;;;7.00;4.23;;;;;;;11.11;100.00;93779.53;5053853;28;20211;-81
2021/08/30 01:21:32;;;;;;;8.53;4.50;;;;;;;11.15;100.00;93779.13;5054063;28;20215;-78
2021/08/30 01:24:04;;;;;;;9.67;4.67;;;;;;;11.11;100.00;93776.91;5054032;28;20305;-81
2021/08/30 01:26:34;;;;;;;10.50;4.50;;;;;;;11.13;100.00;93776.72;5053845;28;20195;-81
2021/08/30 01:29:07;;;;;;;10.13;5.20;;;;;;;11.13;100.00;93781.16;5053656;28;20234;-80
2021/08/30 01:31:39;;;;;;;10.37;5.50;;;;;;;11.13;100.00;93776.72;5053567;28;20195;-80
2021/08/30 01:34:07;;;;;;;9.73;5.27;;;;;;;11.13;100.00;93778.53;5053037;28;20254;-80
2021/08/30 01:36:35;;;;;;;9.77;4.80;;;;;;;11.08;100.00;93777.31;5053684;28;20206;-81
2021/08/30 01:39:03;;;;;;;9.20;5.13;;;;;;;11.12;100.00;93775.09;5053653;28;20203;-80
2021/08/30 01:41:31;;;;;;;10.80;5.13;;;;;;;11.12;100.00;93769.88;5053533;28;20211;-81
2021/08/30 01:43:58;;;;;;;13.57;5.17;;;;;;;11.07;100.00;93773.13;5043030;28;20203;-81
2021/08/30 01:46:25;;;;;;;9.40;3.87;;;;;;;11.09;100.00;93773.69;5052139;28;20231;-79
2021/08/30 01:48:53;;;;;;;6.87;3.57;;;;;;;11.08;100.00;93779.13;5053461;28;20536;-80
2021/08/30 01:51:24;;;;;;;6.00;3.50;;;;;;;11.07;100.00;93772.28;5053300;28;20207;-79
2021/08/30 01:53:53;;;;;;;5.63;3.17;;;;;;;11.08;100.00;93766.88;5050017;28;20257;-81
2021/08/30 01:56:21;;;;;;;5.03;3.10;;;;;;;11.03;100.00;93771.91;5053198;28;20204;-81
2021/08/30 02:01:33;;;;;;;4.90;3.10;;;;;;;11.08;100.00;93769.47;5053205;28;20266;-80
2021/08/30 02:04:00;;;;;;;6.53;3.20;;;;;;;11.10;100.00;93772.69;5052850;28;20294;-80
2021/08/30 02:06:28;;;;;;;5.87;3.00;;;;;;;11.10;100.00;93777.91;5052986;28;20647;-80
2021/08/30 02:08:56;;;;;;;6.27;3.37;;;;;;;11.10;100.00;93772.69;5052883;28;20203;-80
2021/08/30 02:11:29;;;;;;;9.90;3.63;;;;;;;11.13;100.00;93766.25;5053248;28;20199;-80
2021/08/30 02:13:57;;;;;;;6.20;3.43;;;;;;;11.09;100.00;93775.50;5053067;28;20227;-80
2021/08/30 02:16:23;;;;;;;4.87;3.10;;;;;;;11.08;100.00;93766.88;5052907;28;20613;-80
2021/08/30 02:18:55;;;;;;;8.87;4.70;;;;;;;11.07;100.00;93767.88;5052827;28;20662;-81
2021/08/30 02:21:27;;;;;;;8.60;4.80;;;;;;;11.10;100.00;93764.84;5052874;28;20199;-81
2021/08/30 02:24:03;;;;;;;9.63;4.87;;;;;;;11.15;100.00;93764.25;5053108;28;20219;-80
2021/08/30 02:26:35;;;;;;;13.13;5.33;;;;;;;11.14;100.00;93764.44;5052949;28;20203;-81
2021/08/30 02:29:03;;;;;;;10.27;5.53;;;;;;;11.13;100.00;93762.84;5052659;28;20663;-80
2021/08/30 02:31:32;;;;;;;8.53;4.90;;;;;;;11.19;100.00;93754.19;5052742;28;20203;-80
2021/08/30 02:34:00;;;;;;;11.13;5.10;;;;;;;11.13;100.00;93758.41;5052564;28;20230;-81
2021/08/30 02:36:29;;;;;;;7.83;4.10;;;;;;;11.09;100.00;93763.25;5052891;28;20214;-80
2021/08/30 02:38:58;;;;;;;7.93;4.53;;;;;;;11.13;100.00;93766.25;5052785;28;20202;-81
2021/08/30 02:41:25;;;;;;;10.17;5.00;;;;;;;11.10;100.00;93764.84;5052682;28;20200;-80
2021/08/30 02:43:52;;;;;;;9.00;4.57;;;;;;;11.09;100.00;93765.88;5052586;28;20209;-81
2021/08/30 02:46:19;;;;;;;10.53;5.10;;;;;;;11.08;100.00;93764.25;5052319;28;20253;-83
2021/08/30 02:48:47;;;;;;;11.02;6.45;;;;;;;11.10;100.00;93758.81;5051329;28;20435;-83
2021/08/30 02:51:14;;;;;;;9.53;4.87;;;;;;;11.14;100.00;93759.22;5052465;28;20195;-80
2021/08/30 02:53:43;;;;;;;7.33;4.67;;;;;;;11.16;100.00;93759.81;5052490;28;20203;-79
2021/08/30 02:56:12;;;;;;;9.33;4.23;;;;;;;11.13;100.00;93755.00;5052114;28;20536;-82
2021/08/30 02:58:39;;;;;;;6.73;3.90;;;;;;;11.16;100.00;93757.19;5052633;28;20204;-82
2021/08/30 03:01:06;;;;;;;5.50;3.43;;;;;;;11.12;100.00;93748.97;5052369;28;20207;-78
2021/08/30 03:03:35;;;;;;;8.47;4.23;;;;;;;11.07;100.00;93756.63;5052708;28;20211;-79
2021/08/30 03:06:02;;;;;;;7.20;4.20;;;;;;;11.07;100.00;93760.06;5052367;28;20211;-79
2021/08/30 03:08:28;;;;;;;10.20;4.67;;;;;;;11.08;100.00;93753.81;5052620;28;20199;-80
2021/08/30 03:10:57;;;;;;;9.57;4.63;;;;;;;11.09;100.00;93749.38;5052390;28;20567;-80
2021/08/30 03:13:25;;;;;;;11.97;4.67;;;;;;;11.14;100.00;93746.16;5052492;28;20547;-81
2021/08/30 03:15:53;;;;;;;11.53;5.37;;;;;;;11.14;100.00;93741.75;5052428;28;20707;-80
2021/08/30 03:18:20;;;;;;;8.47;4.50;;;;;;;11.17;100.00;93735.28;5055956;28;20238;-82
2021/08/30 03:20:48;;;;;;;16.53;5.10;;;;;;;11.22;100.00;93725.03;5056171;28;20654;-80
2021/08/30 03:23:16;;;;;;;12.83;4.80;;;;;;;11.20;100.00;93722.63;5056035;28;20207;-79
2021/08/30 03:25:44;;;;;;;10.33;5.07;;;;;;;11.23;100.00;93724.81;5056064;28;20202;-80
2021/08/30 03:28:12;;;;;;;7.47;4.20;;;;;;;11.20;100.00;93729.66;5055962;28;20211;-80
2021/08/30 03:30:40;;;;;;;10.43;5.10;;;;;;;11.14;100.00;93722.63;5056133;28;20223;-80
2021/08/30 03:33:08;;;;;;;8.13;4.90;;;;;;;11.16;100.00;93720.59;5056054;28;20210;-80
2021/08/30 03:35:35;;;;;;;9.97;5.30;;;;;;;11.14;100.00;93730.47;5055866;28;20234;-81
2021/08/30 03:38:03;;;;;;;9.50;5.50;;;;;;;11.11;100.00;93736.94;5055911;28;20200;-82
2021/08/30 03:40:30;;;;;;;9.10;5.07;;;;;;;11.11;100.00;93727.25;5055880;28;20217;-80
2021/08/30 03:42:58;;;;;;;8.23;5.27;;;;;;;11.05;100.00;93729.91;5055883;28;20200;-79
2021/08/30 03:45:28;;;;;;;8.37;4.93;;;;;;;11.13;100.00;93734.09;5055576;28;20572;-80
2021/08/30 03:47:56;;;;;;;8.83;4.47;;;;;;;11.11;100.00;93723.84;5055507;28;20259;-80
2021/08/30 03:50:23;;;;;;;7.37;4.20;;;;;;;11.08;100.00;93732.91;5055624;28;20203;-79
2021/08/30 03:52:50;;;;;;;9.83;4.77;;;;;;;11.08;100.00;93730.28;5055712;28;20681;-79
2021/08/30 03:55:16;;;;;;;8.70;5.73;;;;;;;11.09;100.00;93736.31;5055293;28;20698;-79
2021/08/30 03:57:43;;;;;;;7.03;4.27;;;;;;;11.06;100.00;93727.09;5055424;28;20558;-80
2021/08/30 04:00:11;;;;;;;8.73;4.97;;;;;;;11.06;100.00;93723.69;5055529;28;20203;-79
2021/08/30 04:02:39;;;;;;;8.40;4.80;;;;;;;11.06;100.00;93734.91;5057608;28;20575;-81
2021/08/30 04:05:09;;;;;;;11.30;6.50;;;;;;;11.09;100.00;93734.50;5064798;28;20281;-80
2021/08/30 04:07:37;;;;;;;14.13;6.40;;;;;;;11.09;100.00;93731.06;5063603;28;20195;-81
2021/08/30 04:10:04;;;;;;;9.00;5.47;;;;;;;11.11;100.00;93727.25;5055726;28;20217;-80
2021/08/30 04:12:30;;;;;;;9.97;5.77;;;;;;;11.07;100.00;93733.09;5055470;28;20203;-81
2021/08/30 04:14:57;;;;;;;9.60;4.77;;;;;;;11.11;100.00;93729.88;5055148;28;20223;-80
2021/08/30 04:17:24;;;;;;;10.03;4.87;;;;;;;11.07;100.00;93731.31;5055194;28;20206;-79
2021/08/30 04:19:50;;;;;;;12.63;5.50;;;;;;;11.07;100.00;93722.66;5055085;28;20222;-80
2021/08/30 04:22:18;;;;;;;11.48;6.60;;;;;;;11.13;100.00;93726.28;5054066;28;20440;-80
2021/08/30 04:24:45;;;;;;;13.10;5.93;;;;;;;11.16;100.00;93718.00;5054956;28;20676;-80
2021/08/30 04:27:12;;;;;;;12.17;5.70;;;;;;;11.05;100.00;93733.31;5054609;28;20195;-79
2021/08/30 04:29:38;;;;;;;11.10;5.77;;;;;;;11.04;100.00;93726.50;5054915;28;20195;-78
2021/08/30 04:32:07;;;;;;;15.83;6.20;;;;;;;11.04;100.00;93736.94;5054797;28;20199;-79
2021/08/30 04:34:34;;;;;;;11.57;5.53;;;;;;;11.03;100.00;93732.72;5054806;28;20227;-79
2021/08/30 04:37:01;;;;;;;12.90;5.17;;;;;;;11.06;100.00;93739.34;5054587;28;20199;-79
2021/08/30 04:39:29;;;;;;;8.50;4.20;;;;;;;11.04;100.00;93736.94;5054815;28;20207;-79
2021/08/30 04:41:55;;;;;;;8.97;4.30;;;;;;;11.04;100.00;93738.72;5054574;28;20594;-79
2021/08/30 04:44:22;;;;;;;8.80;4.40;;;;;;;11.06;100.00;93745.38;5054521;28;20597;-79
2021/08/30 04:46:48;;;;;;;9.43;4.30;;;;;;;11.03;100.00;93756.22;5053845;28;20232;-78
2021/08/30 04:49:15;;;;;;;6.63;3.83;;;;;;;11.09;100.00;93750.19;5054368;28;20290;-80
2021/08/30 04:51:41;;;;;;;4.73;2.33;;;;;;;11.09;100.00;93752.81;5054393;28;20214;-80
2021/08/30 04:54:08;;;;;;;5.03;2.60;;;;;;;11.14;100.00;93746.97;5054322;28;20203;-81
2021/08/30 04:56:36;;;;;;;6.30;2.77;;;;;;;11.15;100.00;93747.75;5054264;28;20227;-79
2021/08/30 04:59:02;;;;;;;6.30;2.90;;;;;;;11.08;100.00;93743.34;5054327;28;20200;-78
2021/08/30 05:01:29;;;;;;;7.27;2.90;;;;;;;11.10;100.00;93746.56;5054386;28;20210;-80
2021/08/30 05:03:55;;;;;;;6.17;3.03;;;;;;;11.14;100.00;93751.38;5054152;28;20196;-79
2021/08/30 05:06:22;;;;;;;7.83;3.47;;;;;;;11.14;100.00;93744.38;5054344;28;20212;-79
2021/08/30 05:08:48;;;;;;;8.40;4.22;;;;;;;11.12;100.00;93751.56;5053123;28;20435;-79
2021/08/30 05:11:17;;;;;;;9.17;4.07;;;;;;;11.13;100.00;93755.00;5054200;28;20210;-78
2021/08/30 05:13:45;;;;;;;11.23;4.40;;;;;;;11.16;100.00;93749.34;5054056;28;20691;-80
2021/08/30 05:16:11;;;;;;;13.23;5.57;;;;;;;11.15;100.00;93753.00;5053963;28;20227;-80
2021/08/30 05:18:39;;;;;;;14.07;5.07;;;;;;;11.13;100.00;93747.97;5053865;28;20203;-81
2021/08/30 05:21:06;;;;;;;16.70;6.70;;;;;;;11.17;100.00;93750.97;5053786;28;20199;-81
2021/08/30 05:23:32;;;;;;;12.63;5.63;;;;;;;11.18;100.00;93742.13;5054079;28;20203;-80
2021/08/30 05:25:59;;;;;;;12.83;5.77;;;;;;;11.21;100.00;93752.97;5053834;28;20203;-80
2021/08/30 05:28:25;;;;;;;13.70;5.57;;;;;;;11.19;100.00;93748.94;5053679;28;20203;-81
2021/08/30 05:30:53;;;;;;;13.13;5.20;;;;;;;11.20;100.00;93747.94;5053691;28;20204;-79
2021/08/30 05:33:20;;;;;;;13.40;5.73;;;;;;;11.19;100.00;93739.31;5053580;28;20204;-81
2021/08/30 05:35:47;;;;;;;15.40;5.97;;;;;;;11.23;100.00;93742.31;5053462;28;20231;-80
2021/08/30 05:38:13;;;;;;;16.00;6.03;;;;;;;11.20;100.00;93745.34;5053636;28;20199;-81
2021/08/30 05:40:40;;;;;;;18.53;6.97;;;;;;;11.22;100.00;93748.53;5052943;28;20214;-81
2021/08/30 05:43:06;;;;;;;14.30;6.53;;;;;;;11.15;100.00;93750.38;5053619;28;20199;-81
2021/08/30 05:45:33;;;;;;;17.53;6.50;;;;;;;11.17;100.00;93748.34;5053270;28;20211;-80
2021/08/30 05:48:01;;;;;;;17.27;7.03;;;;;;;11.20;100.00;93747.94;5053211;28;20263;-80
2021/08/30 05:50:28;;;;;;;18.02;7.35;;;;;;;11.19;100.00;93743.72;5053042;28;20442;-79
2021/08/30 05:52:54;;;;;;;17.87;6.47;;;;;;;11.17;100.00;93748.34;5053437;28;20199;-81
2021/08/30 05:55:22;;;;;;;17.60;6.77;;;;;;;11.16;100.00;93755.41;5053187;28;20240;-80
2021/08/30 05:57:48;;;;;;;14.63;5.87;;;;;;;11.12;100.00;93754.19;5053230;28;20250;-81
2021/08/30 06:00:16;;;;;;;12.23;5.53;;;;;;;11.15;100.00;93751.16;5053065;28;20658;-81
2021/08/30 06:02:42;;;;;;;15.40;6.03;;;;;;;11.18;100.00;93752.59;5053098;28;20208;-80
2021/08/30 06:05:11;;;;;;;17.10;6.10;;;;;;;11.19;100.00;93755.00;5053263;28;20214;-80
2021/08/30 06:07:39;;;;;;;15.97;6.87;;;;;;;11.21;100.00;93755.59;5053120;28;20195;-81
2021/08/30 06:10:06;;;;;;;19.07;6.97;;;;;;;11.20;100.00;93755.78;5053048;28;20203;-81
2021/08/30 06:12:33;;;;;;;24.13;8.23;;;;;;;11.21;100.00;93758.19;5052846;28;20210;-79
2021/08/30 06:15:00;;;;;;;20.77;8.10;;;;;;;11.20;100.00;93755.78;5052761;28;20203;-80
2021/08/30 06:17:26;;;;;;;17.40;6.70;;;;;;;11.24;100.00;93746.53;5053088;28;20207;-78
2021/08/30 06:19:52;;;;;;;16.13;6.13;;;;;;;11.20;100.00;93753.19;5052979;28;20204;-80
2021/08/30 06:22:20;;;;;;;10.73;4.53;;;;;;;11.27;100.00;93756.56;5052867;28;20655;-82
2021/08/30 06:24:48;;;;;;;10.17;4.60;;;;;;;11.26;100.00;93757.59;5052853;28;20200;-81
2021/08/30 06:27:14;;;;;;;9.83;3.80;;;;;;;11.22;100.00;93757.19;5052794;28;20203;-80
2021/08/30 06:29:41;;;;;;;8.30;3.53;;;;;;;11.19;100.00;93754.19;5052885;28;20199;-80
2021/08/30 06:32:11;;;;;;;7.57;3.77;;;;;;;11.20;100.00;93755.78;5052970;28;20211;-79
2021/08/30 06:34:37;;;;;;;8.70;3.90;;;;;;;11.20;100.00;93766.25;5052845;28;20195;-81
2021/08/30 06:37:04;;;;;;;9.33;4.20;;;;;;;11.24;100.00;93759.59;5052231;28;20223;-81
2021/08/30 06:39:32;;;;;;;9.70;3.43;;;;;;;11.20;100.00;93758.41;5052706;28;20195;-81
2021/08/30 06:41:59;;;;;;;7.70;3.90;;;;;;;11.25;100.00;93753.38;5052575;28;20202;-80
2021/08/30 06:44:25;;;;;;;5.93;3.57;;;;;;;11.21;100.00;93758.19;5052767;28;20203;-80
2021/08/30 06:46:52;;;;;;;7.97;3.93;;;;;;;11.25;100.00;93755.97;5052651;28;20239;-82
2021/08/30 06:49:18;;;;;;;6.63;3.43;;;;;;;11.26;100.00;93754.97;5052725;28;20207;-80
2021/08/30 06:51:45;;;;;;;7.50;3.87;;;;;;;11.25;100.00;93754.16;5055597;28;20202;-81
2021/08/30 06:54:11;;;;;;;7.63;4.00;;;;;;;11.29;100.00;93751.94;5056683;28;20222;-79
2021/08/30 06:56:39;;;;;;;8.63;4.30;;;;;;;11.30;100.00;93756.16;5056424;28;20234;-80
2021/08/30 06:59:06;;;;;;;6.40;3.93;;;;;;;11.29;100.00;93759.78;5056505;28;20673;-79
2021/08/30 07:01:32;;;;;;;8.17;4.17;;;;;;;11.35;100.00;93740.66;5056452;28;20204;-80
2021/08/30 07:04:00;;;;;;;6.63;4.00;;;;;;;11.30;100.00;93756.97;5056543;28;20199;-77
2021/08/30 07:06:27;;;;;;;9.83;4.33;;;;;;;11.30;100.00;93758.78;5056502;28;20203;-80
2021/08/30 07:08:53;;;;;;;9.10;4.60;;;;;;;11.29;100.00;93760.59;5056329;28;20200;-79
2021/08/30 07:11:20;;;;;;;8.97;4.83;;;;;;;11.34;100.00;93752.16;5056535;28;20203;-79
2021/08/30 07:13:48;;;;;;;12.67;5.37;;;;;;;11.35;100.00;93747.72;5056200;28;20210;-80
2021/08/30 07:16:14;;;;;;;8.20;4.73;;;;;;;11.43;100.00;93748.28;5056246;28;20314;-81
2021/08/30 07:18:40;;;;;;;8.47;4.40;;;;;;;11.50;100.00;93755.31;5056342;28;20211;-81
2021/08/30 07:21:07;;;;;;;7.93;4.53;;;;;;;11.47;100.00;93744.25;5056137;28;20200;-81
2021/08/30 07:23:35;;;;;;;7.00;3.43;;;;;;;11.50;100.00;93756.09;5056078;28;20206;-81
2021/08/30 07:26:01;;;;;;;6.67;2.90;;;;;;;11.47;100.00;93762.56;5055955;28;20203;-80
2021/08/30 07:28:28;;;;;;;4.90;2.63;;;;;;;11.48;100.00;93768.59;5056130;28;20206;-81
2021/08/30 07:30:55;;;;;;;3.60;2.33;;;;;;;11.43;100.00;93756.13;5055919;28;20199;-80
2021/08/30 07:33:22;;;;;;;16.23;8.80;;;;;;;11.52;100.00;93758.50;5055987;28;20218;-80
2021/08/30 07:35:49;;;;;;;3.40;2.27;;;;;;;11.59;100.00;93764.50;5055872;28;20227;-78
2021/08/30 07:38:15;;;;;;;3.83;2.00;;;;;;;11.64;100.00;93769.94;5056816;28;20658;-81
2021/08/30 07:40:42;;;;;;;4.63;2.30;;;;;;;11.61;100.00;93767.75;5058137;28;20211;-80
2021/08/30 07:43:08;;;;;;;4.70;2.67;;;;;;;11.64;100.00;93768.13;5060505;28;20195;-79
2021/08/30 07:45:35;;;;;;;4.90;2.30;;;;;;;11.65;100.00;93771.53;5059767;28;20203;-75
2021/08/30 07:48:03;;;;;;;3.67;2.47;;;;;;;11.69;100.00;93775.38;5056165;28;20238;-81
2021/08/30 07:50:30;;;;;;;6.90;2.70;;;;;;;11.73;100.00;93776.53;5055702;28;20217;-79
2021/08/30 07:52:56;;;;;;;5.70;2.90;;;;;;;11.69;100.00;93785.00;5055749;28;20199;-80
2021/08/30 07:55:23;;;;;;;7.37;4.00;;;;;;;11.64;100.00;93786.44;5055389;28;20539;-79
2021/08/30 07:57:49;;;;;;;200.57;10.80;;;;;;;11.68;100.00;93794.66;5055577;28;20211;-77
2021/08/30 08:00:16;;;;;;;25.03;6.20;;;;;;;11.66;100.00;93800.09;5055382;28;20204;-78
2021/08/30 08:02:43;;;;;;;12.70;6.60;;;;;;;11.66;100.00;93794.09;5054706;28;20294;-80
2021/08/30 08:05:11;;;;;;;12.77;7.47;;;;;;;11.65;100.00;93802.91;5055325;28;20306;-79
2021/08/30 08:07:38;;;;;;;14.90;8.53;;;;;;;11.75;100.00;93795.44;5054998;28;20460;-80
2021/08/30 08:10:06;;;;;;;14.90;8.00;;;;;;;11.79;100.00;93801.88;5055462;28;20208;-78
2021/08/30 08:12:32;;;;;;;13.97;7.77;;;;;;;11.93;100.00;93809.69;5055371;28;20206;-78
2021/08/30 08:14:59;;;;;;;12.20;7.83;;;;;;;11.97;100.00;93806.47;5055294;28;20195;-80
2021/08/30 08:17:25;;;;;;;13.67;7.77;;;;;;;12.03;100.00;93810.06;5051769;28;20231;-80
2021/08/30 08:19:52;;;;;;;11.70;7.50;;;;;;;12.13;100.00;93822.69;5052124;28;20574;-80
2021/08/30 08:22:21;;;;;;;12.60;7.43;;;;;;;12.03;100.00;93820.53;5051101;28;20200;-81
2021/08/30 08:24:47;;;;;;;11.57;7.47;;;;;;;12.02;100.00;93816.28;5035966;28;20211;-78
2021/08/30 08:27:14;;;;;;;12.45;7.28;;;;;;;12.16;100.00;93817.06;5049367;28;20199;-77
2021/08/30 08:29:40;;;;;;;12.18;7.25;;;;;;;12.08;100.00;93818.09;5054853;28;20209;-80
2021/08/30 08:32:08;;;;;;;11.87;6.47;;;;;;;12.14;100.00;93811.19;5054600;28;20195;-77
2021/08/30 08:34:34;;;;;;;10.98;6.57;;;;;;;12.10;100.00;93818.66;5054751;28;20210;-78
2021/08/30 08:37:02;;;;;;;14.27;7.50;;;;;;;12.21;100.00;93825.88;5054906;28;20227;-78
2021/08/30 08:39:30;;;;;;;11.75;7.88;;;;;;;12.21;100.00;93819.84;5054903;28;20196;-79
2021/08/30 08:41:56;;;;;;;14.50;7.50;;;;;;;12.18;100.00;93821.06;5054820;28;20206;-77
2021/08/30 08:44:23;;;;;;;10.02;6.85;;;;;;;12.29;100.00;93818.78;5054656;28;20199;-79
2021/08/30 08:46:50;;;;;;;12.10;7.33;;;;;;;12.30;100.00;93818.56;5053958;28;20227;-79
2021/08/30 08:49:16;;;;;;;13.18;7.38;;;;;;;12.38;100.00;93825.38;5054626;28;20208;-78
2021/08/30 08:51:42;;;;;;;11.02;7.10;;;;;;;12.57;100.00;93829.72;5054680;28;20207;-80
2021/08/30 08:54:09;;;;;;;11.43;7.63;;;;;;;12.86;100.00;93832.75;5054717;28;20585;-80
2021/08/30 08:56:37;;;;;;;9.27;5.80;;;;;;;13.05;100.00;93819.69;5054337;28;20273;-79
2021/08/30 08:59:04;;;;;;;10.50;6.18;;;;;;;13.39;100.00;93825.47;5054434;28;20207;-79
2021/08/30 09:01:31;;;;;;;8.30;5.50;;;;;;;13.32;100.00;93831.59;5054158;28;20654;-79
2021/08/30 09:03:58;;;;;;;7.63;5.38;;;;;;;13.56;100.00;93836.22;5054582;28;20199;-79
2021/08/30 09:06:27;;;;;;;9.57;5.97;;;;;;;13.54;100.00;93823.31;5054388;28;20203;-79
2021/08/30 09:08:57;;;;;;;9.90;5.90;;;;;;;13.22;100.00;93828.63;5054116;28;20206;-80
2021/08/30 09:11:23;;;;;;;11.18;6.32;;;;;;;12.93;100.00;93823.00;5054183;28;20200;-80
2021/08/30 09:13:54;;;;;;;12.15;6.78;;;;;;;12.91;100.00;93830.28;5053205;28;20203;-80
2021/08/30 09:16:22;;;;;;;11.18;7.50;;;;;;;12.82;100.00;93826.31;5053783;28;20690;-80
2021/08/30 09:18:49;;;;;;;14.07;6.80;;;;;;;12.79;100.00;93826.75;5054053;28;20218;-77
2021/08/30 09:21:16;;;;;;;14.40;7.10;;;;;;;12.80;100.00;93827.53;5053902;28;20204;-78
2021/08/30 09:23:44;;;;;;;10.75;7.18;;;;;;;12.85;100.00;93822.47;5053786;28;20685;-81
2021/08/30 09:26:16;;;;;;;12.98;6.68;;;;;;;12.87;100.00;93838.78;5053800;28;20223;-79
2021/08/30 09:28:50;;;;;;;36.97;18.23;;;;;;;12.94;100.00;93842.16;5053713;28;20712;-81
2021/08/30 09:31:20;;;;;;;12.25;7.43;;;;;;;12.94;100.00;93835.09;5053912;28;20613;-80
2021/08/30 09:33:48;;;;;;;13.25;7.65;;;;;;;12.85;100.00;93843.44;5053888;28;20201;-79
2021/08/30 09:36:15;;;;;;;10.98;7.43;;;;;;;12.85;100.00;93841.59;5053653;28;20315;-78
2021/08/30 09:38:42;;;;;;;12.18;7.30;;;;;;;12.80;100.00;93838.81;5053544;28;20733;-79
2021/08/30 09:41:09;;;;;;;11.63;7.80;;;;;;;12.83;100.00;93842.84;5053358;28;20776;-78
2021/08/30 09:43:36;;;;;;;13.20;8.63;;;;;;;13.06;100.00;93832.59;5052856;28;20443;-78
2021/08/30 09:46:11;;;;;;;13.93;7.78;;;;;;;13.29;100.00;93839.84;5090802;27;20555;-79
2021/08/30 09:48:43;;;;;;;7.25;4.85;;;;;;;13.18;100.00;93840.53;5090691;28;20217;-78
2021/08/30 09:51:10;;;;;;;8.32;5.25;;;;;;;13.26;100.00;93834.25;5090367;28;20202;-77
2021/08/30 09:53:36;;;;;;;9.70;5.95;;;;;;;13.20;100.00;93838.50;5090449;28;20198;-79
2021/08/30 09:56:03;;;;;;;8.60;5.60;;;;;;;13.47;100.00;93840.91;5090470;28;20206;-79
2021/08/30 09:58:31;;;;;;;6.10;3.88;;;;;;;13.33;100.00;93838.41;5090439;28;20205;-77
2021/08/30 10:01:00;;;;;;;5.63;3.72;;;;;;;12.89;100.00;93841.97;5090422;28;20589;-78
2021/08/30 10:03:30;;;;;;;7.57;4.38;;;;;;;12.85;100.00;93838.97;5090264;28;20202;-78
2021/08/30 10:05:58;;;;;;;7.80;5.03;;;;;;;12.89;100.00;93840.19;5090032;28;20225;-76
2021/08/30 10:08:26;;;;;;;8.60;5.30;;;;;;;13.00;100.00;93833.44;5090050;28;20205;-80
2021/08/30 10:10:53;;;;;;;9.23;5.60;;;;;;;13.04;100.00;93846.91;5090214;28;20194;-77
2021/08/30 10:13:20;;;;;;;11.30;6.00;;;;;;;12.98;100.00;93839.91;5090103;28;20201;-78
2021/08/30 10:15:49;;;;;;;12.50;6.63;;;;;;;13.12;100.00;93841.41;5090058;28;20206;-77
2021/08/30 10:18:18;;;;;;;16.45;9.27;;;;;;;13.48;100.00;93845.94;5089958;28;20206;-78
2021/08/30 10:20:49;;;;;;;12.73;5.80;;;;;;;13.56;100.00;93844.88;5089779;28;20201;-79
2021/08/30 10:23:17;;;;;;;7.47;4.70;;;;;;;13.14;100.00;93836.75;5090013;28;20220;-81
2021/08/30 10:25:55;;;;;;;10.38;6.30;;;;;;;13.25;100.00;93845.72;5089647;28;20222;-79
2021/08/30 10:28:21;;;;;;;11.00;7.10;;;;;;;13.26;100.00;93844.72;5089786;28;20760;-80
2021/08/30 10:30:53;;;;;;;11.40;7.28;;;;;;;13.10;100.00;93843.44;5089235;28;20433;-81
2021/08/30 10:33:23;;;;;;;13.35;7.85;;;;;;;13.22;100.00;93839.13;5089555;28;20208;-78
2021/08/30 10:35:51;;;;;;;12.80;7.55;;;;;;;13.33;100.00;93845.50;5089760;28;20199;-77
2021/08/30 10:38:20;;;;;;;13.25;8.00;;;;;;;13.32;100.00;93849.13;5089662;28;20208;-79
2021/08/30 10:40:51;;;;;;;13.45;7.85;;;;;;;13.61;100.00;93839.78;5089224;28;20297;-81
2021/08/30 10:43:19;;;;;;;9.93;7.15;;;;;;;13.89;100.00;93838.50;5087222;28;20205;-81
2021/08/30 10:45:56;;;;;;;9.63;5.03;;;;;;;13.62;100.00;93836.16;5089279;28;20240;-78
2021/08/30 10:48:31;;;;;;;7.95;5.00;;;;;;;13.24;100.00;93839.69;5089474;28;20206;-79
2021/08/30 10:50:59;;;;;;;7.90;5.03;;;;;;;13.28;100.00;93843.47;5089477;28;20198;-78
2021/08/30 10:53:27;;;;;;;7.63;4.78;;;;;;;13.33;100.00;93848.91;5089335;28;20198;-77
2021/08/30 10:55:55;;;;;;;7.80;5.10;;;;;;;13.29;100.00;93846.94;5084801;28;20195;-77
2021/08/30 10:58:23;;;;;;;8.05;4.60;;;;;;;13.06;100.00;93852.75;5075620;28;20202;-76
2021/08/30 11:00:51;;;;;;;7.43;4.93;;;;;;;13.00;100.00;93853.59;5075352;28;20474;-77
2021/08/30 11:03:30;;;;;;;4.00;3.13;;;;;;;12.74;100.00;93858.03;5075665;28;20206;-78
2021/08/30 11:06:02;;;;;;;5.50;3.70;;;;;;;12.49;100.00;93853.53;5075452;28;20313;-77
2021/08/30 11:08:29;;;;;;;6.75;4.20;;;;;;;12.47;100.00;93859.97;5075314;28;20234;-76
2021/08/30 11:11:09;;;;;;;9.05;5.28;;;;;;;12.51;100.00;93858.56;5075615;28;20198;-76
2021/08/30 11:13:36;;;;;;;11.20;8.05;;;;;;;12.53;100.00;93854.69;5074390;28;20442;-77
2021/08/30 11:16:02;;;;;;;15.07;7.90;;;;;;;12.59;100.00;93847.84;5075291;28;20260;-76
2021/08/30 11:18:29;;;;;;;13.68;9.00;;;;;;;12.93;100.00;93851.81;5075189;28;20549;-77
2021/08/30 11:20:55;;;;;;;14.02;8.77;;;;;;;13.18;100.00;93856.28;5075234;28;20199;-77
2021/08/30 11:23:27;;;;;;;13.82;8.55;;;;;;;13.55;100.00;93850.34;5075453;28;20199;-77
2021/08/30 11:26:03;;;;;;;15.15;9.02;;;;;;;13.87;100.00;93851.81;5075249;28;20227;-79